sensor_id;sensor_type;location;lat;lon;timestamp;P1;durP1;ratioP1;P2;durP2;ratioP2
81725;SDS011;71135;16.738;-14.648;2023-08-07T00:00:39;8.25;;;1.88;;
81725;SDS011;71135;16.738;-14.648;2023-08-07T00:03:08;8.38;;;1.85;;
81725;SDS011;71135;16.738;-14.648;2023-08-07T00:05:44;5.35;;;1.48;;
81725;SDS011;71135;16.738;-14.648;2023-08-07T00:08:13;9.70;;;1.27;;
81725;SDS011;71135;16.738;-14.648;2023-08-07T00:10:42;8.70;;;1.45;;
81725;SDS011;71135;16.738;-14.648;2023-08-07T00:13:12;8.85;;;1.65;;
81725;SDS011;71135;16.738;-14.648;2023-08-07T00:15:44;7.40;;;1.33;;
81725;SDS011;71135;16.738;-14.648;2023-08-07T00:18:13;6.55;;;1.45;;
81725;SDS011;71135;16.738;-14.648;2023-08-07T00:20:42;10.70;;;2.80;;
81725;SDS011;71135;16.738;-14.648;2023-08-07T00:23:11;5.32;;;1.42;;
81725;SDS011;71135;16.738;-14.648;2023-08-07T00:25:40;7.88;;;1.27;;
81725;SDS011;71135;16.738;-14.648;2023-08-07T00:28:10;7.00;;;1.40;;
81725;SDS011;71135;16.738;-14.648;2023-08-07T00:30:39;5.55;;;1.15;;
81725;SDS011;71135;16.738;-14.648;2023-08-07T00:33:11;10.43;;;1.40;;
81725;SDS011;71135;16.738;-14.648;2023-08-07T00:38:10;6.10;;;1.73;;
81725;SDS011;71135;16.738;-14.648;2023-08-07T00:40:40;5.32;;;1.55;;
81725;SDS011;71135;16.738;-14.648;2023-08-07T00:43:09;11.10;;;1.63;;
81725;SDS011;71135;16.738;-14.648;2023-08-07T00:45:40;7.38;;;1.58;;
81725;SDS011;71135;16.738;-14.648;2023-08-07T00:48:14;4.47;;;0.90;;
81725;SDS011;71135;16.738;-14.648;2023-08-07T00:50:44;5.57;;;1.00;;
81725;SDS011;71135;16.738;-14.648;2023-08-07T00:53:14;6.68;;;1.10;;
81725;SDS011;71135;16.738;-14.648;2023-08-07T00:55:44;6.95;;;1.25;;
81725;SDS011;71135;16.738;-14.648;2023-08-07T00:58:14;7.32;;;1.40;;
81725;SDS011;71135;16.738;-14.648;2023-08-07T01:00:43;7.07;;;1.40;;
81725;SDS011;71135;16.738;-14.648;2023-08-07T01:03:16;6.68;;;1.17;;
81725;SDS011;71135;16.738;-14.648;2023-08-07T01:05:45;5.00;;;1.17;;
81725;SDS011;71135;16.738;-14.648;2023-08-07T01:08:15;5.80;;;1.30;;
81725;SDS011;71135;16.738;-14.648;2023-08-07T01:10:51;3.90;;;1.27;;
81725;SDS011;71135;16.738;-14.648;2023-08-07T01:13:40;6.93;;;1.75;;
81725;SDS011;71135;16.738;-14.648;2023-08-07T01:16:18;4.85;;;1.02;;
81725;SDS011;71135;16.738;-14.648;2023-08-07T01:18:57;4.50;;;1.60;;
81725;SDS011;71135;16.738;-14.648;2023-08-07T01:21:29;6.22;;;1.48;;
81725;SDS011;71135;16.738;-14.648;2023-08-07T01:24:04;6.38;;;1.30;;
81725;SDS011;71135;16.738;-14.648;2023-08-07T01:26:38;5.90;;;1.52;;
81725;SDS011;71135;16.738;-14.648;2023-08-07T01:29:11;8.05;;;1.40;;
81725;SDS011;71135;16.738;-14.648;2023-08-07T01:31:52;9.90;;;2.30;;
81725;SDS011;71135;16.738;-14.648;2023-08-07T01:34:23;7.60;;;2.15;;
81725;SDS011;71135;16.738;-14.648;2023-08-07T01:36:54;7.78;;;1.63;;
81725;SDS011;71135;16.738;-14.648;2023-08-07T01:39:27;7.65;;;1.45;;
81725;SDS011;71135;16.738;-14.648;2023-08-07T01:41:59;7.78;;;1.63;;
81725;SDS011;71135;16.738;-14.648;2023-08-07T01:44:30;8.80;;;1.85;;
81725;SDS011;71135;16.738;-14.648;2023-08-07T01:47:16;5.90;;;1.60;;
81725;SDS011;71135;16.738;-14.648;2023-08-07T01:49:51;9.70;;;2.13;;
81725;SDS011;71135;16.738;-14.648;2023-08-07T01:52:29;12.40;;;1.90;;
81725;SDS011;71135;16.738;-14.648;2023-08-07T01:55:04;7.43;;;1.77;;
81725;SDS011;71135;16.738;-14.648;2023-08-07T01:57:40;7.10;;;1.90;;
81725;SDS011;71135;16.738;-14.648;2023-08-07T02:00:14;8.13;;;1.88;;
81725;SDS011;71135;16.738;-14.648;2023-08-07T02:02:49;5.88;;;2.08;;
81725;SDS011;71135;16.738;-14.648;2023-08-07T02:05:21;6.35;;;1.88;;
81725;SDS011;71135;16.738;-14.648;2023-08-07T02:07:56;8.27;;;1.98;;
81725;SDS011;71135;16.738;-14.648;2023-08-07T02:10:30;9.65;;;2.03;;
81725;SDS011;71135;16.738;-14.648;2023-08-07T02:13:03;7.00;;;1.90;;
81725;SDS011;71135;16.738;-14.648;2023-08-07T02:15:32;8.00;;;1.80;;
81725;SDS011;71135;16.738;-14.648;2023-08-07T02:18:02;10.27;;;2.35;;
81725;SDS011;71135;16.738;-14.648;2023-08-07T02:20:31;9.23;;;1.85;;
81725;SDS011;71135;16.738;-14.648;2023-08-07T02:23:00;7.05;;;1.98;;
81725;SDS011;71135;16.738;-14.648;2023-08-07T02:25:32;7.00;;;1.80;;
81725;SDS011;71135;16.738;-14.648;2023-08-07T02:28:02;11.07;;;2.03;;
81725;SDS011;71135;16.738;-14.648;2023-08-07T02:30:33;12.73;;;2.15;;
81725;SDS011;71135;16.738;-14.648;2023-08-07T02:33:02;11.27;;;2.63;;
81725;SDS011;71135;16.738;-14.648;2023-08-07T02:35:31;10.15;;;2.40;;
81725;SDS011;71135;16.738;-14.648;2023-08-07T02:38:00;11.68;;;3.40;;
81725;SDS011;71135;16.738;-14.648;2023-08-07T02:40:30;12.18;;;2.35;;
81725;SDS011;71135;16.738;-14.648;2023-08-07T02:43:04;12.23;;;2.13;;
81725;SDS011;71135;16.738;-14.648;2023-08-07T02:45:33;11.85;;;3.33;;
81725;SDS011;71135;16.738;-14.648;2023-08-07T02:48:04;7.72;;;2.53;;
81725;SDS011;71135;16.738;-14.648;2023-08-07T02:50:35;10.50;;;2.42;;
81725;SDS011;71135;16.738;-14.648;2023-08-07T02:53:04;8.88;;;2.55;;
81725;SDS011;71135;16.738;-14.648;2023-08-07T02:55:36;11.98;;;2.80;;
81725;SDS011;71135;16.738;-14.648;2023-08-07T02:58:13;14.20;;;2.35;;
81725;SDS011;71135;16.738;-14.648;2023-08-07T03:00:43;10.35;;;2.22;;
81725;SDS011;71135;16.738;-14.648;2023-08-07T03:03:16;8.20;;;2.50;;
81725;SDS011;71135;16.738;-14.648;2023-08-07T03:05:48;10.15;;;1.88;;
81725;SDS011;71135;16.738;-14.648;2023-08-07T03:08:18;10.73;;;2.00;;
81725;SDS011;71135;16.738;-14.648;2023-08-07T03:10:49;8.68;;;2.25;;
81725;SDS011;71135;16.738;-14.648;2023-08-07T03:13:25;17.27;;;3.22;;
81725;SDS011;71135;16.738;-14.648;2023-08-07T03:15:59;9.35;;;2.60;;
81725;SDS011;71135;16.738;-14.648;2023-08-07T03:20:58;6.00;;;1.70;;
81725;SDS011;71135;16.738;-14.648;2023-08-07T03:23:28;9.05;;;1.85;;
81725;SDS011;71135;16.738;-14.648;2023-08-07T03:26:04;7.28;;;1.88;;
81725;SDS011;71135;16.738;-14.648;2023-08-07T03:28:37;9.18;;;1.95;;
81725;SDS011;71135;16.738;-14.648;2023-08-07T03:31:07;6.03;;;1.67;;
81725;SDS011;71135;16.738;-14.648;2023-08-07T03:33:36;6.55;;;1.67;;
81725;SDS011;71135;16.738;-14.648;2023-08-07T03:36:06;9.43;;;1.63;;
81725;SDS011;71135;16.738;-14.648;2023-08-07T03:38:35;8.68;;;1.88;;
81725;SDS011;71135;16.738;-14.648;2023-08-07T03:41:05;6.80;;;2.13;;
81725;SDS011;71135;16.738;-14.648;2023-08-07T03:43:39;6.60;;;2.00;;
81725;SDS011;71135;16.738;-14.648;2023-08-07T03:46:09;8.27;;;1.85;;
81725;SDS011;71135;16.738;-14.648;2023-08-07T03:48:38;4.85;;;1.85;;
81725;SDS011;71135;16.738;-14.648;2023-08-07T03:51:08;6.30;;;1.30;;
81725;SDS011;71135;16.738;-14.648;2023-08-07T03:53:45;6.53;;;1.38;;
81725;SDS011;71135;16.738;-14.648;2023-08-07T03:56:14;7.18;;;1.48;;
81725;SDS011;71135;16.738;-14.648;2023-08-07T03:58:46;5.80;;;1.38;;
81725;SDS011;71135;16.738;-14.648;2023-08-07T04:01:17;6.18;;;1.95;;
81725;SDS011;71135;16.738;-14.648;2023-08-07T04:03:46;7.45;;;1.83;;
81725;SDS011;71135;16.738;-14.648;2023-08-07T04:06:18;7.07;;;1.48;;
81725;SDS011;71135;16.738;-14.648;2023-08-07T04:08:48;3.47;;;1.70;;
81725;SDS011;71135;16.738;-14.648;2023-08-07T04:11:20;8.32;;;1.52;;
81725;SDS011;71135;16.738;-14.648;2023-08-07T04:13:52;7.93;;;2.25;;
81725;SDS011;71135;16.738;-14.648;2023-08-07T04:16:22;11.20;;;2.40;;
81725;SDS011;71135;16.738;-14.648;2023-08-07T04:18:52;9.38;;;2.47;;
81725;SDS011;71135;16.738;-14.648;2023-08-07T04:21:21;11.70;;;2.60;;
81725;SDS011;71135;16.738;-14.648;2023-08-07T04:23:56;10.35;;;2.40;;
81725;SDS011;71135;16.738;-14.648;2023-08-07T04:26:34;11.30;;;2.78;;
81725;SDS011;71135;16.738;-14.648;2023-08-07T04:29:06;12.50;;;2.63;;
81725;SDS011;71135;16.738;-14.648;2023-08-07T04:31:54;13.75;;;2.47;;
81725;SDS011;71135;16.738;-14.648;2023-08-07T04:34:24;14.50;;;2.95;;
81725;SDS011;71135;16.738;-14.648;2023-08-07T04:36:53;15.90;;;3.80;;
81725;SDS011;71135;16.738;-14.648;2023-08-07T04:39:24;15.35;;;4.00;;
81725;SDS011;71135;16.738;-14.648;2023-08-07T04:41:53;13.88;;;2.85;;
81725;SDS011;71135;16.738;-14.648;2023-08-07T04:44:25;14.00;;;3.13;;
81725;SDS011;71135;16.738;-14.648;2023-08-07T04:46:54;7.82;;;2.08;;
81725;SDS011;71135;16.738;-14.648;2023-08-07T04:49:23;7.53;;;1.90;;
81725;SDS011;71135;16.738;-14.648;2023-08-07T04:51:53;10.93;;;2.50;;
81725;SDS011;71135;16.738;-14.648;2023-08-07T04:54:22;12.27;;;3.10;;
81725;SDS011;71135;16.738;-14.648;2023-08-07T04:56:51;12.45;;;3.10;;
81725;SDS011;71135;16.738;-14.648;2023-08-07T04:59:20;16.05;;;2.58;;
81725;SDS011;71135;16.738;-14.648;2023-08-07T05:01:52;15.02;;;2.58;;
81725;SDS011;71135;16.738;-14.648;2023-08-07T05:04:21;5.75;;;2.15;;
81725;SDS011;71135;16.738;-14.648;2023-08-07T05:06:51;17.15;;;2.85;;
81725;SDS011;71135;16.738;-14.648;2023-08-07T05:09:20;13.75;;;2.90;;
81725;SDS011;71135;16.738;-14.648;2023-08-07T05:11:50;19.02;;;2.75;;
81725;SDS011;71135;16.738;-14.648;2023-08-07T05:14:19;13.73;;;3.28;;
81725;SDS011;71135;16.738;-14.648;2023-08-07T05:16:48;12.48;;;3.00;;
81725;SDS011;71135;16.738;-14.648;2023-08-07T05:19:20;11.65;;;3.10;;
81725;SDS011;71135;16.738;-14.648;2023-08-07T05:21:49;12.27;;;3.15;;
81725;SDS011;71135;16.738;-14.648;2023-08-07T05:24:19;18.63;;;3.17;;
81725;SDS011;71135;16.738;-14.648;2023-08-07T05:26:48;15.93;;;4.20;;
81725;SDS011;71135;16.738;-14.648;2023-08-07T05:29:17;15.20;;;3.22;;
81725;SDS011;71135;16.738;-14.648;2023-08-07T05:31:58;10.00;;;2.25;;
81725;SDS011;71135;16.738;-14.648;2023-08-07T05:34:43;7.93;;;2.42;;
81725;SDS011;71135;16.738;-14.648;2023-08-07T05:37:12;13.70;;;3.33;;
81725;SDS011;71135;16.738;-14.648;2023-08-07T05:39:43;8.20;;;2.75;;
81725;SDS011;71135;16.738;-14.648;2023-08-07T05:42:12;14.90;;;2.70;;
81725;SDS011;71135;16.738;-14.648;2023-08-07T05:44:41;9.10;;;2.72;;
81725;SDS011;71135;16.738;-14.648;2023-08-07T05:47:13;13.77;;;3.40;;
81725;SDS011;71135;16.738;-14.648;2023-08-07T05:49:43;11.75;;;2.97;;
81725;SDS011;71135;16.738;-14.648;2023-08-07T05:52:13;12.98;;;3.20;;
81725;SDS011;71135;16.738;-14.648;2023-08-07T05:54:45;14.23;;;2.83;;
81725;SDS011;71135;16.738;-14.648;2023-08-07T05:57:18;13.60;;;2.58;;
81725;SDS011;71135;16.738;-14.648;2023-08-07T05:59:48;10.02;;;3.35;;
81725;SDS011;71135;16.738;-14.648;2023-08-07T06:02:20;9.15;;;2.85;;
81725;SDS011;71135;16.738;-14.648;2023-08-07T06:04:52;13.15;;;2.72;;
81725;SDS011;71135;16.738;-14.648;2023-08-07T06:07:24;6.07;;;2.20;;
81725;SDS011;71135;16.738;-14.648;2023-08-07T06:09:53;9.98;;;2.22;;
81725;SDS011;71135;16.738;-14.648;2023-08-07T06:12:23;9.90;;;2.45;;
81725;SDS011;71135;16.738;-14.648;2023-08-07T06:14:52;9.00;;;2.30;;
81725;SDS011;71135;16.738;-14.648;2023-08-07T06:17:24;10.23;;;2.17;;
81725;SDS011;71135;16.738;-14.648;2023-08-07T06:19:54;8.68;;;2.42;;
81725;SDS011;71135;16.738;-14.648;2023-08-07T06:22:23;8.57;;;2.05;;
81725;SDS011;71135;16.738;-14.648;2023-08-07T06:24:52;8.55;;;2.30;;
81725;SDS011;71135;16.738;-14.648;2023-08-07T06:27:21;11.18;;;2.22;;
81725;SDS011;71135;16.738;-14.648;2023-08-07T06:29:51;8.73;;;2.40;;
81725;SDS011;71135;16.738;-14.648;2023-08-07T06:32:24;7.50;;;2.17;;
81725;SDS011;71135;16.738;-14.648;2023-08-07T06:34:54;7.18;;;2.60;;
81725;SDS011;71135;16.738;-14.648;2023-08-07T06:37:23;9.13;;;2.22;;
81725;SDS011;71135;16.738;-14.648;2023-08-07T06:39:52;9.60;;;2.33;;
81725;SDS011;71135;16.738;-14.648;2023-08-07T06:42:21;7.57;;;3.13;;
81725;SDS011;71135;16.738;-14.648;2023-08-07T06:44:51;7.85;;;3.10;;
81725;SDS011;71135;16.738;-14.648;2023-08-07T06:47:20;11.30;;;2.72;;
81725;SDS011;71135;16.738;-14.648;2023-08-07T06:49:52;8.85;;;2.63;;
81725;SDS011;71135;16.738;-14.648;2023-08-07T06:52:21;6.22;;;2.10;;
81725;SDS011;71135;16.738;-14.648;2023-08-07T06:54:50;8.65;;;2.42;;
81725;SDS011;71135;16.738;-14.648;2023-08-07T06:57:20;7.32;;;3.05;;
81725;SDS011;71135;16.738;-14.648;2023-08-07T06:59:49;6.93;;;2.25;;
81725;SDS011;71135;16.738;-14.648;2023-08-07T07:02:18;7.55;;;2.53;;
81725;SDS011;71135;16.738;-14.648;2023-08-07T07:04:47;12.20;;;2.75;;
81725;SDS011;71135;16.738;-14.648;2023-08-07T07:07:19;10.95;;;2.78;;
81725;SDS011;71135;16.738;-14.648;2023-08-07T07:09:48;10.40;;;3.25;;
81725;SDS011;71135;16.738;-14.648;2023-08-07T07:12:17;11.02;;;2.78;;
81725;SDS011;71135;16.738;-14.648;2023-08-07T07:14:47;8.90;;;2.53;;
81725;SDS011;71135;16.738;-14.648;2023-08-07T07:17:16;9.75;;;2.70;;
81725;SDS011;71135;16.738;-14.648;2023-08-07T07:19:45;7.38;;;2.42;;
81725;SDS011;71135;16.738;-14.648;2023-08-07T07:22:14;7.00;;;2.45;;
81725;SDS011;71135;16.738;-14.648;2023-08-07T07:24:46;6.07;;;2.25;;
81725;SDS011;71135;16.738;-14.648;2023-08-07T07:27:16;7.20;;;2.28;;
81725;SDS011;71135;16.738;-14.648;2023-08-07T07:29:45;8.27;;;2.10;;
81725;SDS011;71135;16.738;-14.648;2023-08-07T07:32:14;8.85;;;2.22;;
81725;SDS011;71135;16.738;-14.648;2023-08-07T07:34:43;5.30;;;1.77;;
81725;SDS011;71135;16.738;-14.648;2023-08-07T07:37:13;7.60;;;1.83;;
81725;SDS011;71135;16.738;-14.648;2023-08-07T07:39:42;7.03;;;1.77;;
81725;SDS011;71135;16.738;-14.648;2023-08-07T07:42:14;9.73;;;1.90;;
81725;SDS011;71135;16.738;-14.648;2023-08-07T07:44:43;5.13;;;1.90;;
81725;SDS011;71135;16.738;-14.648;2023-08-07T07:47:12;8.93;;;2.63;;
81725;SDS011;71135;16.738;-14.648;2023-08-07T07:49:43;8.50;;;1.85;;
81725;SDS011;71135;16.738;-14.648;2023-08-07T07:52:13;9.10;;;2.00;;
81725;SDS011;71135;16.738;-14.648;2023-08-07T07:54:42;7.13;;;2.22;;
81725;SDS011;71135;16.738;-14.648;2023-08-07T07:57:14;6.57;;;1.60;;
81725;SDS011;71135;16.738;-14.648;2023-08-07T07:59:43;9.82;;;2.33;;
81725;SDS011;71135;16.738;-14.648;2023-08-07T08:02:14;4.30;;;1.50;;
81725;SDS011;71135;16.738;-14.648;2023-08-07T08:04:43;7.40;;;2.03;;
81725;SDS011;71135;16.738;-14.648;2023-08-07T08:07:13;10.93;;;1.70;;
81725;SDS011;71135;16.738;-14.648;2023-08-07T08:09:43;8.82;;;2.00;;
81725;SDS011;71135;16.738;-14.648;2023-08-07T08:12:15;5.45;;;2.03;;
81725;SDS011;71135;16.738;-14.648;2023-08-07T08:14:47;6.75;;;1.98;;
81725;SDS011;71135;16.738;-14.648;2023-08-07T08:17:17;6.63;;;2.00;;
81725;SDS011;71135;16.738;-14.648;2023-08-07T08:19:46;10.50;;;2.55;;
81725;SDS011;71135;16.738;-14.648;2023-08-07T08:22:15;8.80;;;1.92;;
81725;SDS011;71135;16.738;-14.648;2023-08-07T08:24:47;8.10;;;2.15;;
81725;SDS011;71135;16.738;-14.648;2023-08-07T08:27:16;8.38;;;1.70;;
81725;SDS011;71135;16.738;-14.648;2023-08-07T08:29:46;10.57;;;1.80;;
81725;SDS011;71135;16.738;-14.648;2023-08-07T08:32:16;7.65;;;2.38;;
81725;SDS011;71135;16.738;-14.648;2023-08-07T08:34:45;8.55;;;3.15;;
81725;SDS011;71135;16.738;-14.648;2023-08-07T08:37:15;10.05;;;1.90;;
81725;SDS011;71135;16.738;-14.648;2023-08-07T08:39:47;10.32;;;1.85;;
81725;SDS011;71135;16.738;-14.648;2023-08-07T08:42:22;10.07;;;1.95;;
81725;SDS011;71135;16.738;-14.648;2023-08-07T08:44:52;6.22;;;1.60;;
81725;SDS011;71135;16.738;-14.648;2023-08-07T08:47:22;5.15;;;2.40;;
81725;SDS011;71135;16.738;-14.648;2023-08-07T08:49:54;7.53;;;1.95;;
81725;SDS011;71135;16.738;-14.648;2023-08-07T08:52:28;7.70;;;1.38;;
81725;SDS011;71135;16.738;-14.648;2023-08-07T08:55:01;4.80;;;1.50;;
81725;SDS011;71135;16.738;-14.648;2023-08-07T09:00:01;4.82;;;1.55;;
81725;SDS011;71135;16.738;-14.648;2023-08-07T09:05:59;7.38;;;2.70;;
81725;SDS011;71135;16.738;-14.648;2023-08-07T09:08:29;8.18;;;1.83;;
81725;SDS011;71135;16.738;-14.648;2023-08-07T09:11:02;5.22;;;1.02;;
81725;SDS011;71135;16.738;-14.648;2023-08-07T09:13:33;6.07;;;1.60;;
81725;SDS011;71135;16.738;-14.648;2023-08-07T09:16:04;3.28;;;1.10;;
81725;SDS011;71135;16.738;-14.648;2023-08-07T09:18:36;4.32;;;1.30;;
81725;SDS011;71135;16.738;-14.648;2023-08-07T09:21:05;6.03;;;0.90;;
81725;SDS011;71135;16.738;-14.648;2023-08-07T09:23:35;7.10;;;1.77;;
81725;SDS011;71135;16.738;-14.648;2023-08-07T09:26:11;5.50;;;1.42;;
81725;SDS011;71135;16.738;-14.648;2023-08-07T09:28:41;6.97;;;1.80;;
81725;SDS011;71135;16.738;-14.648;2023-08-07T09:31:16;4.30;;;1.10;;
81725;SDS011;71135;16.738;-14.648;2023-08-07T09:33:47;5.00;;;1.70;;
81725;SDS011;71135;16.738;-14.648;2023-08-07T09:36:16;4.03;;;1.20;;
81725;SDS011;71135;16.738;-14.648;2023-08-07T09:38:49;4.25;;;1.50;;
81725;SDS011;71135;16.738;-14.648;2023-08-07T09:41:21;2.65;;;1.38;;
81725;SDS011;71135;16.738;-14.648;2023-08-07T09:43:51;4.10;;;1.10;;
81725;SDS011;71135;16.738;-14.648;2023-08-07T09:46:20;6.95;;;1.60;;
81725;SDS011;71135;16.738;-14.648;2023-08-07T09:48:49;4.32;;;1.40;;
81725;SDS011;71135;16.738;-14.648;2023-08-07T09:51:19;5.53;;;1.98;;
81725;SDS011;71135;16.738;-14.648;2023-08-07T09:53:48;5.63;;;1.30;;
81725;SDS011;71135;16.738;-14.648;2023-08-07T09:56:20;5.20;;;1.55;;
81725;SDS011;71135;16.738;-14.648;2023-08-07T09:58:53;5.15;;;1.73;;
81725;SDS011;71135;16.738;-14.648;2023-08-07T10:01:22;6.65;;;1.65;;
81725;SDS011;71135;16.738;-14.648;2023-08-07T10:03:53;7.85;;;1.35;;
81725;SDS011;71135;16.738;-14.648;2023-08-07T10:06:23;6.43;;;2.05;;
81725;SDS011;71135;16.738;-14.648;2023-08-07T10:08:52;4.10;;;1.40;;
81725;SDS011;71135;16.738;-14.648;2023-08-07T10:11:26;4.80;;;1.52;;
81725;SDS011;71135;16.738;-14.648;2023-08-07T10:13:57;4.10;;;1.70;;
81725;SDS011;71135;16.738;-14.648;2023-08-07T10:16:26;6.90;;;1.55;;
81725;SDS011;71135;16.738;-14.648;2023-08-07T10:18:56;5.35;;;2.05;;
81725;SDS011;71135;16.738;-14.648;2023-08-07T10:21:25;5.82;;;1.65;;
81725;SDS011;71135;16.738;-14.648;2023-08-07T10:23:55;7.35;;;1.52;;
81725;SDS011;71135;16.738;-14.648;2023-08-07T10:26:28;5.40;;;1.23;;
81725;SDS011;71135;16.738;-14.648;2023-08-07T10:28:58;3.63;;;1.33;;
81725;SDS011;71135;16.738;-14.648;2023-08-07T10:31:28;3.70;;;1.52;;
81725;SDS011;71135;16.738;-14.648;2023-08-07T10:33:59;5.68;;;1.42;;
81725;SDS011;71135;16.738;-14.648;2023-08-07T10:36:32;4.32;;;1.70;;
81725;SDS011;71135;16.738;-14.648;2023-08-07T10:39:08;4.80;;;1.52;;
81725;SDS011;71135;16.738;-14.648;2023-08-07T10:41:44;7.18;;;1.80;;
81725;SDS011;71135;16.738;-14.648;2023-08-07T10:44:18;5.80;;;1.85;;
81725;SDS011;71135;16.738;-14.648;2023-08-07T10:46:48;4.65;;;1.08;;
81725;SDS011;71135;16.738;-14.648;2023-08-07T10:49:32;6.47;;;1.83;;
81725;SDS011;71135;16.738;-14.648;2023-08-07T10:52:03;6.25;;;1.90;;
81725;SDS011;71135;16.738;-14.648;2023-08-07T10:54:37;5.00;;;2.00;;
81725;SDS011;71135;16.738;-14.648;2023-08-07T10:57:15;5.25;;;2.25;;
81725;SDS011;71135;16.738;-14.648;2023-08-07T10:59:49;7.07;;;1.75;;
81725;SDS011;71135;16.738;-14.648;2023-08-07T11:02:22;5.78;;;1.88;;
81725;SDS011;71135;16.738;-14.648;2023-08-07T11:04:53;5.05;;;2.03;;
81725;SDS011;71135;16.738;-14.648;2023-08-07T11:07:24;3.90;;;1.20;;
81725;SDS011;71135;16.738;-14.648;2023-08-07T11:09:55;4.82;;;1.52;;
81725;SDS011;71135;16.738;-14.648;2023-08-07T11:12:27;3.95;;;1.20;;
81725;SDS011;71135;16.738;-14.648;2023-08-07T11:14:57;6.57;;;1.45;;
81725;SDS011;71135;16.738;-14.648;2023-08-07T11:17:26;5.20;;;1.98;;
81725;SDS011;71135;16.738;-14.648;2023-08-07T11:19:57;5.35;;;1.65;;
81725;SDS011;71135;16.738;-14.648;2023-08-07T11:22:27;4.38;;;1.60;;
81725;SDS011;71135;16.738;-14.648;2023-08-07T11:24:56;3.53;;;1.52;;
81725;SDS011;71135;16.738;-14.648;2023-08-07T11:27:28;4.65;;;1.30;;
81725;SDS011;71135;16.738;-14.648;2023-08-07T11:29:57;3.88;;;1.20;;
81725;SDS011;71135;16.738;-14.648;2023-08-07T11:32:26;6.35;;;1.67;;
81725;SDS011;71135;16.738;-14.648;2023-08-07T11:34:56;7.25;;;1.70;;
81725;SDS011;71135;16.738;-14.648;2023-08-07T11:37:25;4.93;;;1.70;;
81725;SDS011;71135;16.738;-14.648;2023-08-07T11:39:59;3.47;;;1.67;;
81725;SDS011;71135;16.738;-14.648;2023-08-07T11:42:32;4.32;;;1.13;;
81725;SDS011;71135;16.738;-14.648;2023-08-07T11:45:01;4.30;;;1.55;;
81725;SDS011;71135;16.738;-14.648;2023-08-07T11:47:31;3.13;;;1.55;;
81725;SDS011;71135;16.738;-14.648;2023-08-07T11:50:01;6.75;;;1.35;;
81725;SDS011;71135;16.738;-14.648;2023-08-07T11:52:30;3.85;;;1.30;;
81725;SDS011;71135;16.738;-14.648;2023-08-07T11:55:01;3.38;;;1.25;;
81725;SDS011;71135;16.738;-14.648;2023-08-07T11:57:37;4.18;;;1.40;;
81725;SDS011;71135;16.738;-14.648;2023-08-07T12:00:09;4.88;;;1.17;;
81725;SDS011;71135;16.738;-14.648;2023-08-07T12:02:43;6.32;;;1.90;;
81725;SDS011;71135;16.738;-14.648;2023-08-07T12:05:12;7.20;;;1.80;;
81725;SDS011;71135;16.738;-14.648;2023-08-07T12:07:41;7.07;;;1.88;;
81725;SDS011;71135;16.738;-14.648;2023-08-07T12:10:11;5.80;;;1.70;;
81725;SDS011;71135;16.738;-14.648;2023-08-07T12:12:43;6.55;;;1.20;;
81725;SDS011;71135;16.738;-14.648;2023-08-07T12:15:12;3.97;;;1.52;;
81725;SDS011;71135;16.738;-14.648;2023-08-07T12:17:41;8.32;;;2.92;;
81725;SDS011;71135;16.738;-14.648;2023-08-07T12:20:11;6.55;;;2.03;;
81725;SDS011;71135;16.738;-14.648;2023-08-07T12:22:40;8.38;;;1.95;;
81725;SDS011;71135;16.738;-14.648;2023-08-07T12:25:10;5.57;;;1.48;;
81725;SDS011;71135;16.738;-14.648;2023-08-07T12:27:39;4.05;;;1.40;;
81725;SDS011;71135;16.738;-14.648;2023-08-07T12:30:11;5.97;;;1.75;;
81725;SDS011;71135;16.738;-14.648;2023-08-07T12:32:42;5.50;;;1.27;;
81725;SDS011;71135;16.738;-14.648;2023-08-07T12:35:11;6.35;;;1.50;;
81725;SDS011;71135;16.738;-14.648;2023-08-07T12:37:40;8.73;;;1.52;;
81725;SDS011;71135;16.738;-14.648;2023-08-07T12:40:10;5.63;;;1.33;;
81725;SDS011;71135;16.738;-14.648;2023-08-07T12:42:42;6.38;;;1.70;;
81725;SDS011;71135;16.738;-14.648;2023-08-07T12:45:13;4.68;;;1.75;;
81725;SDS011;71135;16.738;-14.648;2023-08-07T12:47:44;5.15;;;1.50;;
81725;SDS011;71135;16.738;-14.648;2023-08-07T12:50:14;3.47;;;1.13;;
81725;SDS011;71135;16.738;-14.648;2023-08-07T12:52:43;4.50;;;1.58;;
81725;SDS011;71135;16.738;-14.648;2023-08-07T12:55:12;3.90;;;1.52;;
81725;SDS011;71135;16.738;-14.648;2023-08-07T12:57:42;5.30;;;1.10;;
81725;SDS011;71135;16.738;-14.648;2023-08-07T13:00:15;5.03;;;1.70;;
81725;SDS011;71135;16.738;-14.648;2023-08-07T13:05:14;4.95;;;1.40;;
81725;SDS011;71135;16.738;-14.648;2023-08-07T13:07:44;3.15;;;0.88;;
81725;SDS011;71135;16.738;-14.648;2023-08-07T13:10:14;5.90;;;1.70;;
81725;SDS011;71135;16.738;-14.648;2023-08-07T13:12:45;4.68;;;1.48;;
81725;SDS011;71135;16.738;-14.648;2023-08-07T13:15:19;5.63;;;1.80;;
81725;SDS011;71135;16.738;-14.648;2023-08-07T13:17:48;5.35;;;1.40;;
81725;SDS011;71135;16.738;-14.648;2023-08-07T13:20:18;6.45;;;1.63;;
81725;SDS011;71135;16.738;-14.648;2023-08-07T13:22:47;3.65;;;1.40;;
81725;SDS011;71135;16.738;-14.648;2023-08-07T13:25:16;8.43;;;1.40;;
81725;SDS011;71135;16.738;-14.648;2023-08-07T13:27:45;6.32;;;1.27;;
81725;SDS011;71135;16.738;-14.648;2023-08-07T13:30:14;9.05;;;2.03;;
81725;SDS011;71135;16.738;-14.648;2023-08-07T13:32:46;5.55;;;1.38;;
81725;SDS011;71135;16.738;-14.648;2023-08-07T13:35:15;3.10;;;1.00;;
81725;SDS011;71135;16.738;-14.648;2023-08-07T13:37:44;3.67;;;1.50;;
81725;SDS011;71135;16.738;-14.648;2023-08-07T13:40:14;3.08;;;1.30;;
81725;SDS011;71135;16.738;-14.648;2023-08-07T13:42:44;2.60;;;1.13;;
81725;SDS011;71135;16.738;-14.648;2023-08-07T13:45:14;4.10;;;1.42;;
81725;SDS011;71135;16.738;-14.648;2023-08-07T13:47:46;5.05;;;1.52;;
81725;SDS011;71135;16.738;-14.648;2023-08-07T13:50:16;4.40;;;1.40;;
81725;SDS011;71135;16.738;-14.648;2023-08-07T13:52:46;7.15;;;1.73;;
81725;SDS011;71135;16.738;-14.648;2023-08-07T13:55:15;5.38;;;1.48;;
81725;SDS011;71135;16.738;-14.648;2023-08-07T13:57:44;4.53;;;1.50;;
81725;SDS011;71135;16.738;-14.648;2023-08-07T14:00:13;6.10;;;1.65;;
81725;SDS011;71135;16.738;-14.648;2023-08-07T14:02:43;4.60;;;2.40;;
81725;SDS011;71135;16.738;-14.648;2023-08-07T14:05:15;4.50;;;1.52;;
81725;SDS011;71135;16.738;-14.648;2023-08-07T14:07:44;4.35;;;1.48;;
81725;SDS011;71135;16.738;-14.648;2023-08-07T14:10:14;3.33;;;1.00;;
81725;SDS011;71135;16.738;-14.648;2023-08-07T14:12:43;2.88;;;1.10;;
81725;SDS011;71135;16.738;-14.648;2023-08-07T14:15:12;4.95;;;1.55;;
81725;SDS011;71135;16.738;-14.648;2023-08-07T14:17:41;3.80;;;1.33;;
81725;SDS011;71135;16.738;-14.648;2023-08-07T14:20:11;3.92;;;1.33;;
81725;SDS011;71135;16.738;-14.648;2023-08-07T14:22:43;1.75;;;0.82;;
81725;SDS011;71135;16.738;-14.648;2023-08-07T14:25:12;4.43;;;1.13;;
81725;SDS011;71135;16.738;-14.648;2023-08-07T14:27:41;3.63;;;1.40;;
81725;SDS011;71135;16.738;-14.648;2023-08-07T14:30:11;3.85;;;1.77;;
81725;SDS011;71135;16.738;-14.648;2023-08-07T14:32:41;3.70;;;1.20;;
81725;SDS011;71135;16.738;-14.648;2023-08-07T14:35:12;3.58;;;1.38;;
81725;SDS011;71135;16.738;-14.648;2023-08-07T14:37:44;5.13;;;0.95;;
81725;SDS011;71135;16.738;-14.648;2023-08-07T14:40:14;2.90;;;1.25;;
81725;SDS011;71135;16.738;-14.648;2023-08-07T14:42:43;3.20;;;1.00;;
81725;SDS011;71135;16.738;-14.648;2023-08-07T14:45:12;3.90;;;1.33;;
81725;SDS011;71135;16.738;-14.648;2023-08-07T14:47:43;3.30;;;1.73;;
81725;SDS011;71135;16.738;-14.648;2023-08-07T14:50:12;4.13;;;1.60;;
81725;SDS011;71135;16.738;-14.648;2023-08-07T14:52:41;4.93;;;1.33;;